Time;durP1;ratioP1;P1;durP2;ratioP2;P2;SDS_P1;SDS_P2;PMS_P1;PMS_P2;Temp;Humidity;BMP_temperature;BMP_pressure;BME280_temperature;BME280_humidity;BME280_pressure;Samples;Min_cycle;Max_cycle;Signal;HPM_P1;HPM_P2
2022/03/31 00:01:15;;;;;;;;;73.80;58.40;26.40;99.90;;;;;;5058891;28;9387;-66
2022/03/31 00:03:42;;;;;;;;;73.80;62.40;26.50;99.90;;;;;;5048339;28;8769;-66
2022/03/31 00:06:08;;;;;;;;;70.40;57.00;26.40;99.90;;;;;;5038049;28;8733;-66
2022/03/31 00:08:35;;;;;;;;;68.20;55.60;26.40;99.90;;;;;;5037648;28;8753;-65
2022/03/31 00:11:02;;;;;;;;;76.00;60.80;26.40;99.90;;;;;;5038122;28;8887;-66
2022/03/31 00:13:29;;;;;;;;;74.80;60.80;26.50;99.90;;;;;;5020172;28;8733;-65
2022/03/31 00:15:57;;;;;;;;;70.60;57.60;26.50;99.90;;;;;;5038494;28;8721;-66
2022/03/31 00:18:24;;;;;;;;;71.80;60.20;26.60;99.90;;;;;;5010987;28;8763;-65
2022/03/31 00:20:51;;;;;;;;;73.20;60.60;26.60;99.90;;;;;;5058011;28;8762;-66
2022/03/31 00:23:18;;;;;;;;;70.60;58.60;26.60;99.90;;;;;;5072983;28;8759;-65
2022/03/31 00:25:44;;;;;;;;;71.40;59.40;26.70;99.90;;;;;;5039942;28;8800;-65
2022/03/31 00:28:11;;;;;;;;;73.60;62.60;26.70;99.90;;;;;;5058144;28;8739;-66
2022/03/31 00:30:38;;;;;;;;;71.40;60.00;26.70;99.90;;;;;;5057589;28;8886;-66
2022/03/31 00:33:04;;;;;;;;;70.40;60.60;26.80;99.90;;;;;;5053059;28;9405;-66
2022/03/31 00:35:31;;;;;;;;;69.80;60.00;26.70;99.90;;;;;;5019690;28;8757;-65
2022/03/31 00:37:57;;;;;;;;;75.60;65.00;26.70;99.90;;;;;;5037544;28;8991;-66
2022/03/31 00:40:25;;;;;;;;;71.20;59.40;26.80;99.90;;;;;;5016670;28;8762;-66
2022/03/31 00:42:56;;;;;;;;;80.00;72.40;26.80;99.90;;;;;;5018147;28;8722;-66
2022/03/31 00:45:28;;;;;;;;;75.80;67.80;26.80;99.90;;;;;;5016129;28;8747;-65
2022/03/31 00:47:55;;;;;;;;;78.40;68.60;26.80;99.90;;;;;;5019102;28;8761;-66
2022/03/31 00:50:28;;;;;;;;;80.20;69.20;26.80;99.90;;;;;;5036798;28;8748;-65
2022/03/31 00:52:54;;;;;;;;;76.00;65.60;26.80;99.90;;;;;;5036057;28;8736;-66
2022/03/31 00:55:21;;;;;;;;;75.60;64.80;26.80;99.90;;;;;;5036436;28;8784;-66
2022/03/31 00:57:50;;;;;;;;;79.00;69.20;26.90;99.90;;;;;;5037101;28;8742;-66
2022/03/31 01:00:17;;;;;;;;;75.00;61.60;26.90;99.90;;;;;;5037190;28;8810;-65
2022/03/31 01:02:44;;;;;;;;;74.00;61.20;26.90;99.90;;;;;;5035441;28;8774;-66
2022/03/31 01:05:12;;;;;;;;;73.40;61.20;27.00;99.90;;;;;;5017599;28;8777;-66
2022/03/31 01:07:39;;;;;;;;;70.80;60.00;27.00;99.90;;;;;;5016480;28;8747;-66
2022/03/31 01:10:07;;;;;;;;;73.60;61.00;27.00;99.90;;;;;;5017783;28;8793;-66
2022/03/31 01:12:34;;;;;;;;;70.40;61.20;27.00;99.90;;;;;;5016969;28;9364;-66
2022/03/31 01:15:08;;;;;;;;;77.00;69.00;27.00;99.90;;;;;;5017113;28;8783;-66
2022/03/31 01:17:38;;;;;;;;;74.60;64.40;27.00;99.90;;;;;;5017039;28;8742;-66
2022/03/31 01:20:07;;;;;;;;;77.00;69.00;27.00;99.90;;;;;;5036651;28;8753;-66
2022/03/31 01:22:33;;;;;;;;;71.00;55.00;27.10;99.90;;;;;;5036717;28;8740;-66
2022/03/31 01:25:01;;;;;;;;;74.20;63.20;27.10;99.90;;;;;;5036856;28;8779;-66
2022/03/31 01:27:27;;;;;;;;;74.40;61.80;27.10;99.90;;;;;;5035047;28;8834;-66
2022/03/31 01:29:54;;;;;;;;;73.20;63.60;27.20;99.90;;;;;;5036638;28;8791;-66
2022/03/31 01:32:21;;;;;;;;;72.80;63.20;27.20;99.90;;;;;;5036616;28;8757;-65
2022/03/31 01:34:48;;;;;;;;;71.60;62.80;27.30;99.90;;;;;;5018385;28;8781;-65
2022/03/31 01:37:15;;;;;;;;;76.00;64.60;27.30;99.90;;;;;;5017607;28;8759;-65
2022/03/31 01:39:42;;;;;;;;;75.80;65.40;27.30;99.90;;;;;;5028651;28;9547;-66
2022/03/31 01:42:09;;;;;;;;;75.40;63.40;27.40;99.90;;;;;;5036910;28;8780;-66
2022/03/31 01:44:36;;;;;;;;;69.80;57.00;27.40;99.90;;;;;;5036318;28;8757;-66
2022/03/31 01:47:02;;;;;;;;;72.40;61.60;27.40;99.90;;;;;;5018982;28;8799;-66
2022/03/31 01:49:29;;;;;;;;;70.20;55.80;27.50;99.90;;;;;;5051902;28;8865;-66
2022/03/31 01:51:55;;;;;;;;;73.40;65.00;27.50;99.90;;;;;;5056814;28;8739;-66
2022/03/31 01:54:22;;;;;;;;;73.40;62.40;27.60;99.90;;;;;;5056142;28;8790;-66
2022/03/31 01:56:49;;;;;;;;;67.80;55.00;27.60;99.90;;;;;;5056573;28;8759;-67
2022/03/31 01:59:15;;;;;;;;;73.20;61.00;27.60;99.90;;;;;;5056261;28;8873;-67
2022/03/31 02:01:42;;;;;;;;;70.80;58.20;27.70;99.90;;;;;;5056130;28;8750;-66
2022/03/31 02:04:08;;;;;;;;;68.80;54.60;27.70;99.90;;;;;;5043496;28;8883;-67
2022/03/31 02:06:35;;;;;;;;;69.40;54.00;27.70;99.90;;;;;;5036211;28;8730;-67
2022/03/31 02:09:01;;;;;;;;;68.80;55.00;27.70;99.90;;;;;;5036077;28;9052;-67
2022/03/31 02:11:29;;;;;;;;;68.40;56.60;27.80;99.90;;;;;;5034302;28;8781;-66
2022/03/31 02:13:55;;;;;;;;;68.60;56.40;27.80;99.90;;;;;;5043303;28;8765;-67
2022/03/31 02:16:22;;;;;;;;;63.40;50.80;27.80;99.90;;;;;;5019199;28;8749;-66
2022/03/31 02:18:48;;;;;;;;;65.60;50.60;27.90;99.90;;;;;;5047694;28;8766;-66
2022/03/31 02:21:15;;;;;;;;;61.20;49.40;27.90;99.90;;;;;;5050999;28;9500;-67
2022/03/31 02:23:42;;;;;;;;;63.80;51.00;27.90;99.90;;;;;;5059623;28;8822;-66
2022/03/31 02:26:09;;;;;;;;;67.60;52.00;28.00;99.90;;;;;;5042463;28;8852;-67
2022/03/31 02:28:35;;;;;;;;;65.20;51.80;28.00;99.90;;;;;;5041927;28;8845;-66
2022/03/31 02:31:02;;;;;;;;;70.80;57.80;28.00;99.90;;;;;;5075841;28;8725;-66
2022/03/31 02:33:28;;;;;;;;;67.60;53.00;28.10;99.90;;;;;;5051721;28;8765;-66
2022/03/31 02:35:56;;;;;;;;;61.00;49.00;28.10;99.90;;;;;;5039866;28;8741;-66
2022/03/31 02:38:22;;;;;;;;;60.40;48.00;28.10;99.90;;;;;;5021582;28;8733;-66
2022/03/31 02:40:49;;;;;;;;;63.80;51.20;28.10;99.90;;;;;;5022159;28;8765;-66
2022/03/31 02:43:18;;;;;;;;;63.80;51.60;28.20;99.90;;;;;;5022999;28;8737;-66
2022/03/31 02:45:45;;;;;;;;;62.40;50.60;28.30;99.90;;;;;;5022521;28;8741;-66
2022/03/31 02:48:12;;;;;;;;;65.80;52.80;28.30;99.90;;;;;;5044297;28;8751;-66
2022/03/31 02:50:39;;;;;;;;;66.60;53.20;28.30;99.90;;;;;;5059390;28;8763;-66
2022/03/31 02:55:50;;;;;;;;;61.40;49.80;28.40;99.90;;;;;;5044049;28;8755;-66
2022/03/31 02:58:17;;;;;;;;;64.20;51.20;28.40;99.90;;;;;;5059917;28;8723;-65
2022/03/31 03:00:44;;;;;;;;;63.80;50.40;28.50;99.90;;;;;;5059120;28;8742;-66
2022/03/31 03:03:11;;;;;;;;;61.20;50.20;28.50;99.90;;;;;;5053857;28;8867;-66
2022/03/31 03:05:41;;;;;;;;;63.40;49.80;28.60;99.90;;;;;;5039164;28;8899;-66
2022/03/31 03:08:09;;;;;;;;;60.00;47.80;28.60;99.90;;;;;;5038962;28;8858;-66
2022/03/31 03:10:35;;;;;;;;;62.80;50.20;28.60;99.90;;;;;;5038816;28;8752;-66
2022/03/31 03:13:02;;;;;;;;;64.60;51.60;28.60;99.90;;;;;;5022001;28;8844;-66
2022/03/31 03:15:29;;;;;;;;;62.00;49.40;28.70;99.90;;;;;;5038610;28;8838;-66
2022/03/31 03:17:55;;;;;;;;;62.00;49.00;28.70;99.90;;;;;;5041842;28;8747;-66
2022/03/31 03:20:24;;;;;;;;;62.40;50.60;28.80;99.90;;;;;;5058661;28;8742;-66
2022/03/31 03:22:52;;;;;;;;;59.60;47.80;28.80;99.90;;;;;;5051757;28;8767;-66
2022/03/31 03:25:20;;;;;;;;;58.00;47.20;28.90;99.90;;;;;;5071188;28;8812;-65
2022/03/31 03:27:47;;;;;;;;;61.25;50.50;28.90;99.90;;;;;;5041079;28;8791;-66
2022/03/31 03:30:14;;;;;;;;;61.60;50.00;29.00;99.90;;;;;;5040452;28;8707;-66
2022/03/31 03:32:41;;;;;;;;;63.00;50.00;28.90;99.90;;;;;;5072780;28;8751;-66
2022/03/31 03:35:09;;;;;;;;;60.80;49.00;29.00;99.90;;;;;;5038535;28;8899;-66
2022/03/31 03:37:37;;;;;;;;;62.60;49.60;29.10;99.90;;;;;;5053665;28;9040;-66
2022/03/31 03:40:05;;;;;;;;;64.80;51.80;29.00;99.90;;;;;;5038919;28;8781;-66
2022/03/31 03:42:32;;;;;;;;;61.00;49.20;29.20;99.90;;;;;;5004441;28;9898;-66
2022/03/31 03:44:59;;;;;;;;;61.80;50.00;29.20;99.90;;;;;;5038656;28;8781;-66
2022/03/31 03:47:26;;;;;;;;;62.20;50.00;29.20;99.90;;;;;;5037982;28;8883;-64
2022/03/31 03:49:52;;;;;;;;;48.80;41.20;29.40;99.90;;;;;;5057796;28;8861;-66
2022/03/31 03:52:19;;;;;;;;;62.20;50.60;29.30;99.90;;;;;;5040843;28;8742;-65
2022/03/31 03:54:45;;;;;;;;;63.60;50.20;29.30;99.90;;;;;;5040968;28;8778;-66
2022/03/31 03:57:12;;;;;;;;;66.60;53.00;29.40;99.90;;;;;;5040486;28;8896;-66
2022/03/31 03:59:39;;;;;;;;;65.20;51.00;29.30;99.90;;;;;;5058604;28;8865;-66
2022/03/31 04:02:05;;;;;;;;;61.00;50.00;29.30;99.90;;;;;;5058279;28;8789;-66
2022/03/31 04:04:32;;;;;;;;;63.80;51.00;29.30;99.90;;;;;;5041097;28;8757;-66
2022/03/31 04:06:59;;;;;;;;;64.80;51.40;29.50;99.90;;;;;;5038532;28;8764;-66
2022/03/31 04:09:25;;;;;;;;;65.00;52.00;29.60;99.90;;;;;;5037993;28;8765;-66
2022/03/31 04:11:52;;;;;;;;;65.00;51.60;29.60;99.90;;;;;;5020716;28;8773;-66
2022/03/31 04:14:21;;;;;;;;;63.40;51.20;29.50;99.90;;;;;;5020118;28;8790;-65
2022/03/31 04:16:48;;;;;;;;;62.60;50.20;29.60;99.90;;;;;;5020804;28;8764;-66
2022/03/31 04:19:14;;;;;;;;;67.60;55.00;29.50;99.90;;;;;;5051965;28;8759;-66
2022/03/31 04:21:41;;;;;;;;;66.00;53.20;29.70;99.90;;;;;;5057758;28;8757;-67
2022/03/31 04:24:08;;;;;;;;;67.00;52.40;29.70;99.90;;;;;;5057529;28;8766;-67
2022/03/31 04:26:34;;;;;;;;;64.20;51.40;29.70;99.90;;;;;;5039781;28;8771;-66
2022/03/31 04:29:01;;;;;;;;;61.60;50.00;29.80;99.90;;;;;;5039822;28;9477;-66
2022/03/31 04:31:29;;;;;;;;;64.00;51.80;29.90;99.90;;;;;;5057288;28;8789;-66
2022/03/31 04:33:55;;;;;;;;;67.40;53.40;29.80;99.90;;;;;;5046647;28;8781;-66
2022/03/31 04:36:22;;;;;;;;;62.00;50.20;29.90;99.90;;;;;;5037391;28;8749;-65
2022/03/31 04:38:51;;;;;;;;;61.40;50.40;29.80;99.90;;;;;;5019951;28;8827;-66
2022/03/31 04:41:17;;;;;;;;;62.80;51.40;29.90;99.90;;;;;;5036297;28;8745;-65
2022/03/31 04:43:44;;;;;;;;;61.60;49.00;30.00;99.90;;;;;;5036192;28;8725;-66
2022/03/31 04:46:10;;;;;;;;;65.40;53.00;30.00;99.90;;;;;;5037959;28;8875;-66
2022/03/31 04:48:37;;;;;;;;;64.00;51.20;30.00;99.90;;;;;;5045734;28;8766;-66
2022/03/31 04:51:04;;;;;;;;;64.80;50.20;30.10;99.90;;;;;;5057173;28;8723;-67
2022/03/31 04:53:30;;;;;;;;;66.20;52.00;30.10;99.90;;;;;;5055740;28;8746;-66
2022/03/31 04:55:59;;;;;;;;;61.60;49.40;30.20;99.90;;;;;;5057198;28;8763;-66
2022/03/31 04:58:26;;;;;;;;;66.40;54.20;30.30;99.90;;;;;;5054150;28;8874;-65
2022/03/31 05:00:53;;;;;;;;;64.80;52.80;30.30;99.90;;;;;;5048218;28;8719;-66
2022/03/31 05:03:19;;;;;;;;;62.80;51.20;30.30;99.90;;;;;;5050113;28;8745;-66
2022/03/31 05:05:46;;;;;;;;;66.20;52.80;30.20;99.90;;;;;;5036635;28;8733;-66
2022/03/31 05:08:13;;;;;;;;;61.80;49.60;30.30;99.90;;;;;;5037106;28;8818;-66
2022/03/31 05:10:40;;;;;;;;;65.80;51.80;30.40;99.90;;;;;;5019127;28;8814;-66
2022/03/31 05:13:06;;;;;;;;;68.20;55.80;30.40;99.90;;;;;;5037680;28;9407;-66
2022/03/31 05:15:33;;;;;;;;;69.80;53.60;30.60;99.90;;;;;;5036635;28;8851;-66
2022/03/31 05:17:59;;;;;;;;;70.20;54.60;30.50;99.90;;;;;;5040485;28;8731;-66
2022/03/31 05:20:26;;;;;;;;;69.20;55.60;30.50;99.90;;;;;;5056805;28;8724;-66
2022/03/31 05:22:52;;;;;;;;;65.40;53.00;30.40;99.90;;;;;;5056666;28;9419;-66
2022/03/31 05:25:19;;;;;;;;;66.00;52.40;30.60;99.90;;;;;;5056024;28;8778;-66
2022/03/31 05:27:47;;;;;;;;;70.00;56.20;30.50;99.90;;;;;;5056406;28;8841;-66
2022/03/31 05:30:16;;;;;;;;;64.40;50.80;30.50;99.90;;;;;;5038759;28;8754;-66
2022/03/31 05:32:43;;;;;;;;;68.60;56.20;30.50;99.90;;;;;;5037473;28;8816;-66
2022/03/31 05:35:11;;;;;;;;;63.00;49.80;30.50;99.90;;;;;;5036495;28;8892;-66
2022/03/31 05:37:37;;;;;;;;;65.80;53.00;30.80;99.90;;;;;;5036251;28;8781;-65
2022/03/31 05:40:05;;;;;;;;;66.00;51.80;30.90;99.90;;;;;;5037961;28;8789;-66
2022/03/31 05:42:32;;;;;;;;;65.80;53.40;30.90;99.70;;;;;;5036962;28;8790;-66
2022/03/31 05:45:00;;;;;;;;;68.80;51.00;30.90;99.90;;;;;;5037063;28;8776;-66
2022/03/31 05:47:27;;;;;;;;;69.20;57.40;31.10;99.30;;;;;;5036451;28;8800;-66
2022/03/31 05:49:53;;;;;;;;;65.00;51.60;31.00;99.50;;;;;;5038020;28;9046;-66
2022/03/31 05:52:20;;;;;;;;;64.60;50.80;31.20;99.70;;;;;;5039629;28;8865;-66
2022/03/31 05:54:50;;;;;;;;;68.00;54.60;31.10;99.30;;;;;;5061796;28;8763;-66
2022/03/31 05:57:20;;;;;;;;;60.00;46.80;31.20;99.20;;;;;;5061592;28;8747;-65
2022/03/31 05:59:46;;;;;;;;;59.60;49.40;31.20;98.80;;;;;;5060395;28;8829;-66
2022/03/31 06:02:13;;;;;;;;;71.60;58.00;31.10;98.50;;;;;;5061210;28;8778;-66
2022/03/31 06:04:39;;;;;;;;;69.60;59.20;31.20;98.60;;;;;;5022842;28;9402;-66
2022/03/31 06:07:08;;;;;;;;;65.40;52.60;31.40;99.00;;;;;;5023740;28;9481;-67
2022/03/31 06:09:35;;;;;;;;;72.20;60.80;31.50;96.80;;;;;;5040702;28;8748;-66
2022/03/31 06:12:01;;;;;;;;;69.80;58.60;31.50;97.10;;;;;;5056159;28;8830;-66
2022/03/31 06:14:28;;;;;;;;;72.40;59.80;31.60;95.00;;;;;;5040670;28;8760;-66
2022/03/31 06:16:55;;;;;;;;;72.60;63.40;31.60;93.10;;;;;;5040587;28;8745;-66
2022/03/31 06:19:21;;;;;;;;;74.40;65.20;31.70;93.40;;;;;;5055384;28;8743;-65
2022/03/31 06:21:48;;;;;;;;;73.40;64.00;31.30;94.40;;;;;;5059942;28;8731;-66
2022/03/31 06:24:15;;;;;;;;;74.80;68.00;31.30;94.70;;;;;;5075627;28;8773;-66
2022/03/31 06:26:41;;;;;;;;;68.20;55.00;31.70;94.30;;;;;;5059179;28;8821;-66
2022/03/31 06:29:08;;;;;;;;;69.00;56.40;31.80;94.40;;;;;;5042421;28;9480;-66
2022/03/31 06:31:35;;;;;;;;;71.80;57.00;32.00;92.10;;;;;;5059855;28;8723;-66
2022/03/31 06:34:02;;;;;;;;;71.20;58.60;32.10;92.50;;;;;;5030671;28;8765;-66
2022/03/31 06:36:29;;;;;;;;;70.40;57.80;32.30;91.50;;;;;;5039614;28;8787;-66
2022/03/31 06:38:56;;;;;;;;;67.20;53.00;32.30;91.50;;;;;;5039571;28;8772;-66
2022/03/31 06:41:23;;;;;;;;;68.40;54.20;32.30;90.80;;;;;;5022150;28;8811;-66
2022/03/31 06:43:50;;;;;;;;;62.00;50.80;32.10;91.10;;;;;;5039598;28;8826;-66
2022/03/31 06:46:16;;;;;;;;;59.00;48.00;32.00;89.80;;;;;;5040316;28;8751;-67
2022/03/31 06:48:46;;;;;;;;;64.40;52.00;32.00;91.40;;;;;;5048835;28;8739;-66
2022/03/31 06:51:13;;;;;;;;;66.80;53.80;32.30;91.00;;;;;;5059537;28;8719;-66
2022/03/31 06:53:41;;;;;;;;;66.60;53.00;32.30;90.90;;;;;;5074522;28;8755;-67
2022/03/31 06:56:08;;;;;;;;;65.80;51.00;32.20;91.80;;;;;;5059310;28;8767;-66
2022/03/31 06:58:35;;;;;;;;;65.40;52.80;32.30;91.40;;;;;;5058841;28;8754;-66
2022/03/31 07:01:01;;;;;;;;;67.20;57.60;32.10;91.50;;;;;;5042401;28;8789;-66
2022/03/31 07:03:28;;;;;;;;;63.40;50.80;32.30;92.20;;;;;;5051536;28;8751;-66
2022/03/31 07:05:55;;;;;;;;;66.00;53.40;32.60;90.90;;;;;;5038883;28;8729;-66
2022/03/31 07:08:22;;;;;;;;;66.20;52.00;32.50;90.00;;;;;;5039226;28;9386;-66
2022/03/31 07:10:49;;;;;;;;;62.40;49.20;32.50;90.30;;;;;;5054743;28;8757;-66
2022/03/31 07:13:15;;;;;;;;;59.20;48.80;32.50;90.10;;;;;;5039796;28;8729;-66
2022/03/31 07:15:42;;;;;;;;;61.80;49.80;32.50;89.80;;;;;;5021176;28;8733;-66
2022/03/31 07:18:09;;;;;;;;;62.60;49.60;32.70;90.50;;;;;;5043631;28;9379;-66
2022/03/31 07:20:36;;;;;;;;;64.00;51.60;32.60;89.30;;;;;;5058761;28;8811;-66
2022/03/31 07:23:02;;;;;;;;;68.40;53.00;32.70;90.50;;;;;;5059227;28;8757;-66
2022/03/31 07:25:29;;;;;;;;;65.20;52.20;32.60;90.90;;;;;;5074221;28;8755;-66
2022/03/31 07:27:56;;;;;;;;;57.60;45.60;32.80;91.70;;;;;;5041719;28;8790;-66
2022/03/31 07:30:23;;;;;;;;;63.40;50.40;32.80;89.70;;;;;;5058570;28;8762;-66
2022/03/31 07:32:57;;;;;;;;;57.80;47.20;32.80;88.70;;;;;;5056751;28;9268;-66
2022/03/31 07:35:27;;;;;;;;;61.80;49.00;32.60;90.60;;;;;;5038224;28;8761;-66
2022/03/31 07:37:54;;;;;;;;;63.80;50.20;32.60;90.80;;;;;;5038643;28;8865;-66
2022/03/31 07:40:22;;;;;;;;;62.40;50.00;32.60;91.20;;;;;;5018146;28;8880;-66
2022/03/31 07:42:49;;;;;;;;;65.00;52.60;32.60;90.50;;;;;;5018038;28;8763;-66
2022/03/31 07:45:15;;;;;;;;;58.40;46.80;32.60;91.00;;;;;;5018184;28;8768;-66
2022/03/31 07:47:42;;;;;;;;;65.00;50.80;32.80;90.70;;;;;;5020070;28;8762;-66
2022/03/31 07:50:10;;;;;;;;;60.40;50.20;32.80;90.10;;;;;;5037578;28;8783;-67
2022/03/31 07:52:38;;;;;;;;;63.80;50.00;32.90;89.90;;;;;;5038582;28;8771;-66
2022/03/31 07:55:05;;;;;;;;;60.40;49.20;32.90;90.40;;;;;;5038165;28;8745;-66
2022/03/31 07:57:32;;;;;;;;;59.40;47.40;32.90;90.00;;;;;;5038482;28;8902;-66
2022/03/31 07:59:58;;;;;;;;;65.80;51.80;32.80;90.10;;;;;;5039041;28;8783;-67
2022/03/31 08:02:25;;;;;;;;;51.60;42.60;32.70;87.90;;;;;;5038690;28;8756;-66
2022/03/31 08:04:52;;;;;;;;;57.00;46.80;32.70;89.20;;;;;;5018351;28;8755;-66
2022/03/31 08:07:19;;;;;;;;;56.40;47.20;32.80;86.60;;;;;;5018572;28;8769;-66
2022/03/31 08:09:45;;;;;;;;;60.00;50.00;33.10;86.70;;;;;;5018263;28;8759;-66
2022/03/31 08:12:12;;;;;;;;;55.60;45.00;33.20;88.10;;;;;;5018521;28;8758;-66
2022/03/31 08:14:39;;;;;;;;;62.20;49.00;33.10;87.00;;;;;;5017918;28;8883;-66
2022/03/31 08:17:05;;;;;;;;;55.60;45.40;33.00;84.10;;;;;;5017121;28;8759;-66
2022/03/31 08:19:32;;;;;;;;;64.00;51.00;32.80;84.60;;;;;;5033700;28;8779;-65
2022/03/31 08:22:02;;;;;;;;;57.20;46.00;32.80;85.80;;;;;;5021178;28;8733;-66
2022/03/31 08:24:30;;;;;;;;;59.40;48.80;33.00;86.30;;;;;;5036322;28;8763;-67
2022/03/31 08:26:58;;;;;;;;;62.00;49.20;33.00;85.80;;;;;;5038116;28;8772;-66
2022/03/31 08:29:28;;;;;;;;;55.60;47.00;33.00;85.90;;;;;;5038134;28;8760;-66
2022/03/31 08:31:55;;;;;;;;;59.20;48.40;33.10;85.90;;;;;;5038096;28;8806;-66
2022/03/31 08:34:22;;;;;;;;;60.00;49.60;33.10;84.80;;;;;;5023228;28;8786;-66
2022/03/31 08:36:52;;;;;;;;;61.40;48.20;33.10;84.90;;;;;;5016302;28;8759;-66
2022/03/31 08:39:18;;;;;;;;;63.80;49.00;33.00;84.40;;;;;;5014402;28;8901;-65
2022/03/31 08:41:45;;;;;;;;;59.60;47.20;33.10;85.30;;;;;;5016655;28;8763;-65
2022/03/31 08:44:15;;;;;;;;;55.00;45.00;33.30;83.80;;;;;;5017913;28;8759;-66
2022/03/31 08:46:42;;;;;;;;;53.60;43.40;33.00;85.90;;;;;;5017932;28;8769;-66
2022/03/31 08:49:09;;;;;;;;;59.40;46.00;33.00;84.30;;;;;;5029378;28;8748;-66
2022/03/31 08:51:36;;;;;;;;;57.40;47.80;33.10;84.70;;;;;;5037562;28;8759;-66
2022/03/31 08:54:03;;;;;;;;;55.20;45.00;33.30;81.40;;;;;;5036202;28;8749;-66
2022/03/31 08:56:29;;;;;;;;;58.00;47.80;33.20;82.40;;;;;;5035962;28;9023;-66
2022/03/31 08:58:56;;;;;;;;;61.20;48.20;33.20;84.60;;;;;;5037098;28;8760;-66
2022/03/31 09:01:22;;;;;;;;;56.00;46.40;33.30;85.50;;;;;;5036490;28;8744;-66
2022/03/31 09:03:49;;;;;;;;;57.00;46.40;33.40;83.60;;;;;;5027092;28;8797;-66
2022/03/31 09:06:23;;;;;;;;;56.20;45.60;33.40;83.50;;;;;;5017403;28;8743;-66
2022/03/31 09:08:57;;;;;;;;;52.80;43.60;33.30;83.10;;;;;;5017398;28;8801;-66
2022/03/31 09:11:46;;;;;;;;;55.00;45.00;33.30;82.10;;;;;;5032809;28;8775;-66
2022/03/31 09:14:13;;;;;;;;;59.00;47.80;33.20;83.90;;;;;;5017206;28;8786;-66
2022/03/31 09:16:40;;;;;;;;;57.80;47.00;33.30;83.50;;;;;;5016093;28;8735;-66
2022/03/31 09:19:11;;;;;;;;;58.20;46.60;33.20;82.00;;;;;;5028749;28;8841;-66
2022/03/31 09:21:54;;;;;;;;;60.00;46.40;33.20;83.20;;;;;;5051660;28;8741;-66
2022/03/31 09:24:21;;;;;;;;;52.80;44.00;33.30;83.10;;;;;;5035206;28;8740;-65
2022/03/31 09:26:51;;;;;;;;;55.50;45.50;33.10;84.10;;;;;;5036809;28;8764;-66
2022/03/31 09:29:20;;;;;;;;;56.20;45.00;33.20;84.30;;;;;;5035386;28;8787;-66
2022/03/31 09:31:47;;;;;;;;;56.20;46.00;33.20;85.20;;;;;;5036869;28;8870;-66
2022/03/31 09:34:15;;;;;;;;;57.80;46.60;33.20;85.00;;;;;;5023616;28;8896;-66
2022/03/31 09:36:48;;;;;;;;;59.00;47.40;33.20;85.00;;;;;;5016694;28;8731;-66
2022/03/31 09:39:17;;;;;;;;;58.80;46.40;33.30;84.00;;;;;;5020154;28;8748;-66
2022/03/31 09:41:48;;;;;;;;;59.80;45.40;33.30;84.60;;;;;;5036606;28;8758;-66
2022/03/31 09:44:18;;;;;;;;;55.40;45.20;33.20;84.80;;;;;;5036471;28;8867;-66
2022/03/31 09:46:45;;;;;;;;;60.00;47.80;33.10;84.40;;;;;;5036700;28;8820;-66
2022/03/31 09:49:25;;;;;;;;;56.40;45.00;33.10;83.70;;;;;;5050272;28;8759;-66
2022/03/31 09:51:52;;;;;;;;;56.80;45.80;33.20;83.30;;;;;;5056812;28;8739;-67
2022/03/31 09:54:20;;;;;;;;;58.80;47.60;33.10;83.60;;;;;;5056313;28;8900;-63
2022/03/31 09:56:47;;;;;;;;;58.20;48.40;33.20;84.70;;;;;;5056245;28;8742;-66
2022/03/31 09:59:14;;;;;;;;;58.00;46.00;33.20;82.90;;;;;;5039056;28;9484;-66
2022/03/31 10:01:41;;;;;;;;;59.75;48.25;33.10;83.00;;;;;;5055984;28;9418;-66
2022/03/31 10:04:10;;;;;;;;;61.00;46.25;33.10;82.80;;;;;;5044415;28;8757;-67
2022/03/31 10:06:37;;;;;;;;;58.50;47.50;33.10;83.00;;;;;;5018903;28;8822;-67
2022/03/31 10:09:05;;;;;;;;;58.80;46.20;33.00;82.90;;;;;;5036800;28;8759;-66
2022/03/31 10:11:33;;;;;;;;;56.40;45.80;33.00;83.20;;;;;;5036214;28;8884;-66
2022/03/31 10:14:24;;;;;;;;;64.20;50.40;32.90;82.60;;;;;;5036459;28;8757;-66
2022/03/31 10:16:53;;;;;;;;;57.20;46.60;33.00;83.50;;;;;;5036025;28;8756;-66
2022/03/31 10:19:41;;;;;;;;;55.60;45.60;33.00;82.60;;;;;;5033250;28;8782;-65
2022/03/31 10:25:22;;;;;;;;;55.00;44.00;32.80;83.30;;;;;;5056484;28;8861;-66
2022/03/31 10:27:50;;;;;;;;;53.80;44.20;32.90;83.60;;;;;;5056091;28;8821;-66
2022/03/31 10:30:23;;;;;;;;;57.50;47.00;32.80;82.90;;;;;;5055911;28;8763;-65
2022/03/31 10:33:01;;;;;;;;;58.00;46.40;32.70;84.10;;;;;;5036923;28;8774;-66
2022/03/31 10:35:35;;;;;;;;;58.40;46.20;32.80;84.60;;;;;;5002032;28;8863;-66
2022/03/31 10:38:16;;;;;;;;;55.60;45.00;32.70;84.30;;;;;;5036630;28;8787;-66
2022/03/31 10:40:44;;;;;;;;;55.80;45.00;32.70;84.90;;;;;;5038862;28;8923;-66
2022/03/31 10:43:30;;;;;;;;;54.50;45.25;32.60;84.70;;;;;;5055612;28;8739;-66
2022/03/31 10:46:00;;;;;;;;;56.20;46.80;32.70;86.00;;;;;;5055785;28;8757;-66
2022/03/31 10:48:28;;;;;;;;;57.40;47.40;32.60;86.20;;;;;;5046244;28;8793;-66
2022/03/31 10:51:06;;;;;;;;;58.80;47.20;32.50;87.00;;;;;;5059892;28;8765;-66
2022/03/31 10:53:35;;;;;;;;;58.60;47.20;32.60;87.60;;;;;;5017328;28;8782;-66
2022/03/31 10:56:15;;;;;;;;;58.40;47.40;32.50;88.30;;;;;;5059452;28;8828;-66
2022/03/31 10:58:41;;;;;;;;;58.20;46.40;32.40;88.90;;;;;;5059406;28;8808;-66
2022/03/31 11:01:08;;;;;;;;;57.80;48.20;32.40;88.10;;;;;;5059987;28;8751;-66
2022/03/31 11:03:35;;;;;;;;;59.00;46.40;32.40;89.00;;;;;;5033404;28;8867;-66
2022/03/31 11:06:05;;;;;;;;;58.60;47.20;32.40;89.40;;;;;;5039406;28;9559;-66
2022/03/31 11:08:43;;;;;;;;;63.20;50.60;32.30;89.40;;;;;;5038932;28;8757;-66
2022/03/31 11:11:21;;;;;;;;;56.80;46.20;32.20;90.10;;;;;;5039284;28;8765;-66
2022/03/31 11:13:47;;;;;;;;;60.80;47.80;32.10;90.50;;;;;;5039746;28;8781;-66
2022/03/31 11:16:15;;;;;;;;;58.20;48.40;32.10;90.70;;;;;;5055137;28;8737;-66
2022/03/31 11:18:43;;;;;;;;;58.40;47.20;32.00;90.70;;;;;;5030604;28;8758;-67
2022/03/31 11:21:10;;;;;;;;;59.00;48.00;31.90;90.40;;;;;;5059151;28;8762;-66
2022/03/31 11:23:45;;;;;;;;;59.00;47.00;31.90;90.20;;;;;;5058608;28;8828;-66
2022/03/31 11:26:14;;;;;;;;;61.20;49.80;31.80;90.20;;;;;;5058869;28;8789;-66
2022/03/31 11:28:41;;;;;;;;;60.20;45.80;31.80;90.70;;;;;;5058746;28;9428;-66
2022/03/31 11:31:14;;;;;;;;;60.80;49.60;31.70;91.00;;;;;;5059317;28;8751;-66
2022/03/31 11:33:41;;;;;;;;;63.40;51.20;31.70;94.80;;;;;;5049161;28;8776;-66
2022/03/31 11:36:07;;;;;;;;;58.80;45.80;31.70;95.00;;;;;;5038772;28;8797;-66
2022/03/31 11:38:37;;;;;;;;;60.80;50.20;31.50;94.80;;;;;;5038692;28;8753;-66
2022/03/31 11:41:04;;;;;;;;;62.00;48.80;31.50;93.50;;;;;;5033940;28;8747;-66
2022/03/31 11:43:32;;;;;;;;;61.80;48.20;31.60;93.00;;;;;;5018227;28;8812;-66
2022/03/31 11:46:02;;;;;;;;;58.60;47.40;31.50;94.20;;;;;;5018111;28;8735;-66
2022/03/31 11:48:34;;;;;;;;;57.80;48.20;31.50;94.70;;;;;;5025416;28;8822;-66
2022/03/31 11:51:05;;;;;;;;;53.20;44.00;31.40;96.20;;;;;;5038249;28;8764;-67
2022/03/31 11:53:43;;;;;;;;;61.20;49.20;31.40;96.70;;;;;;5038457;28;8764;-66
2022/03/31 11:56:22;;;;;;;;;62.00;47.80;31.40;96.40;;;;;;5038770;28;8807;-66
2022/03/31 11:58:52;;;;;;;;;65.40;52.60;31.40;96.90;;;;;;5038475;28;8775;-66
2022/03/31 12:01:22;;;;;;;;;61.60;48.80;31.20;98.00;;;;;;5038660;28;8740;-65
2022/03/31 12:03:49;;;;;;;;;65.20;51.60;31.20;97.50;;;;;;5028598;28;8802;-66
2022/03/31 12:06:16;;;;;;;;;63.00;50.40;31.20;96.60;;;;;;5018629;28;8771;-66
2022/03/31 12:08:43;;;;;;;;;64.60;52.60;31.20;96.60;;;;;;5018499;28;8770;-66
2022/03/31 12:11:11;;;;;;;;;65.60;50.20;31.20;99.90;;;;;;5033812;28;8767;-66
2022/03/31 12:13:51;;;;;;;;;68.00;52.80;31.10;99.90;;;;;;5000814;28;8761;-66
2022/03/31 12:16:17;;;;;;;;;65.80;52.00;30.90;99.90;;;;;;5018617;28;8755;-64
2022/03/31 12:18:44;;;;;;;;;60.80;48.40;30.80;99.90;;;;;;5027325;28;8760;-66
2022/03/31 12:21:11;;;;;;;;;68.40;53.40;30.90;99.90;;;;;;5037888;28;8784;-66
2022/03/31 12:23:44;;;;;;;;;65.80;53.20;30.90;98.60;;;;;;5036383;28;8854;-66
2022/03/31 12:26:18;;;;;;;;;66.60;55.00;30.90;98.40;;;;;;5037940;28;8764;-66
2022/03/31 12:28:45;;;;;;;;;65.40;52.40;31.00;98.30;;;;;;5038005;28;8804;-66
2022/03/31 12:31:34;;;;;;;;;69.20;53.40;31.00;97.90;;;;;;5038418;28;8740;-66
2022/03/31 12:34:02;;;;;;;;;65.20;51.40;30.80;97.80;;;;;;5026935;28;8743;-66
2022/03/31 12:36:33;;;;;;;;;62.20;50.20;30.90;96.90;;;;;;5016493;28;9103;-66
2022/03/31 12:39:03;;;;;;;;;60.00;48.00;30.80;96.80;;;;;;5016942;28;8759;-66
2022/03/31 12:41:35;;;;;;;;;70.00;54.40;30.70;97.30;;;;;;5036729;28;8764;-66
2022/03/31 12:44:12;;;;;;;;;61.60;50.20;30.60;99.30;;;;;;5021094;28;8741;-66
2022/03/31 12:46:53;;;;;;;;;61.80;48.80;30.70;99.90;;;;;;5020523;28;8827;-66